createdAt,value
2022-09-04T00:01:45.312Z,23.50
2022-09-04T00:04:22.244Z,23.50
2022-09-04T00:06:58.623Z,23.50
2022-09-04T00:09:32.345Z,23.40
2022-09-04T00:12:07.336Z,23.30
2022-09-04T00:14:41.836Z,23.30
2022-09-04T00:17:13.907Z,23.20
2022-09-04T00:19:46.229Z,23.30
2022-09-04T00:22:22.312Z,23.20
2022-09-04T00:24:55.282Z,23.10
2022-09-04T00:27:28.542Z,23.20
2022-09-04T00:30:04.096Z,23.20
2022-09-04T00:32:40.212Z,23.20
2022-09-04T00:35:12.990Z,23.20
2022-09-04T00:37:46.513Z,23.20
2022-09-04T00:40:22.526Z,23.10
2022-09-04T00:43:07.323Z,23.10
2022-09-04T00:45:43.330Z,23.10
2022-09-04T00:48:20.950Z,23.20
2022-09-04T00:51:05.715Z,23.30
2022-09-04T00:53:48.622Z,23.40
2022-09-04T00:56:27.667Z,23.50
2022-09-04T00:59:04.781Z,23.50
2022-09-04T01:01:36.801Z,23.50
2022-09-04T01:04:20.428Z,23.50
2022-09-04T01:06:57.096Z,23.40
2022-09-04T01:09:35.942Z,23.10
2022-09-04T01:12:09.749Z,22.70
2022-09-04T01:14:42.875Z,22.30
2022-09-04T01:17:17.116Z,22.10
2022-09-04T01:19:52.128Z,21.90
2022-09-04T01:22:37.199Z,21.80
2022-09-04T01:25:11.640Z,21.70
2022-09-04T01:27:52.087Z,21.50
2022-09-04T01:30:22.346Z,21.40
2022-09-04T01:32:59.291Z,21.40
2022-09-04T01:35:35.248Z,21.20
2022-09-04T01:38:08.963Z,21.10
2022-09-04T01:40:45.806Z,21.00
2022-09-04T01:43:18.768Z,20.90
2022-09-04T01:46:05.673Z,20.80
2022-09-04T01:48:40.811Z,20.70
2022-09-04T01:51:17.574Z,20.50
2022-09-04T01:53:48.808Z,20.40
2022-09-04T01:56:22.572Z,20.30
2022-09-04T01:58:57.305Z,20.30
2022-09-04T02:01:31.976Z,20.20
2022-09-04T02:04:08.878Z,20.20
2022-09-04T02:06:42.732Z,20.10
2022-09-04T02:09:20.713Z,20.00
2022-09-04T02:11:55.363Z,20.00
2022-09-04T02:14:36.863Z,19.90
2022-09-04T02:17:11.616Z,19.90
2022-09-04T02:19:58.455Z,19.90
2022-09-04T02:22:31.471Z,19.90
2022-09-04T02:25:03.321Z,19.80
2022-09-04T02:27:36.390Z,19.80
2022-09-04T02:30:08.798Z,19.80
2022-09-04T02:32:41.198Z,19.70
2022-09-04T02:35:13.466Z,19.70
2022-09-04T02:37:46.956Z,19.80
2022-09-04T02:40:19.289Z,19.80
2022-09-04T02:42:57.736Z,19.80
2022-09-04T02:45:30.843Z,19.80
2022-09-04T02:48:04.721Z,19.70
2022-09-04T02:50:43.617Z,19.70
2022-09-04T02:53:21.925Z,19.60
2022-09-04T02:56:10.102Z,19.60
2022-09-04T02:58:48.331Z,19.60
2022-09-04T03:01:24.701Z,19.60
2022-09-04T03:03:58.852Z,19.70
2022-09-04T03:06:33.743Z,19.70
2022-09-04T03:09:06.050Z,19.70
2022-09-04T03:11:39.416Z,19.60
2022-09-04T03:14:11.054Z,19.60
2022-09-04T03:16:44.881Z,19.50
2022-09-04T03:19:17.082Z,19.40
2022-09-04T03:21:49.096Z,19.40
2022-09-04T03:24:22.758Z,19.30
2022-09-04T03:26:54.784Z,19.30
2022-09-04T03:29:29.159Z,19.30
2022-09-04T03:32:15.578Z,19.20
2022-09-04T03:34:51.495Z,19.30
2022-09-04T03:37:35.499Z,19.30
2022-09-04T03:40:20.393Z,19.30
2022-09-04T03:42:55.942Z,19.30
2022-09-04T03:45:31.916Z,19.30
2022-09-04T03:48:25.540Z,19.20
2022-09-04T03:50:59.339Z,19.10
2022-09-04T03:53:32.619Z,19.10
2022-09-04T03:56:21.711Z,19.10
2022-09-04T03:58:57.093Z,19.00
2022-09-04T04:01:31.026Z,19.00
2022-09-04T04:04:09.457Z,19.00
2022-09-04T04:06:42.101Z,18.90
2022-09-04T04:09:17.348Z,18.90
2022-09-04T04:11:54.024Z,18.90
2022-09-04T04:14:30.002Z,18.80
2022-09-04T04:17:05.265Z,18.70
2022-09-04T04:19:56.139Z,18.70
2022-09-04T04:22:38.474Z,18.60
2022-09-04T04:25:17.689Z,18.50
2022-09-04T04:28:05.410Z,18.60
2022-09-04T04:30:45.723Z,18.80
2022-09-04T04:33:20.305Z,18.90
2022-09-04T04:35:55.453Z,19.00
2022-09-04T04:38:30.485Z,19.10
2022-09-04T04:41:08.014Z,19.20
2022-09-04T04:43:45.128Z,19.20
2022-09-04T04:46:17.741Z,19.30
2022-09-04T04:49:13.505Z,19.30
2022-09-04T04:51:54.332Z,19.30
2022-09-04T04:54:34.229Z,19.30
2022-09-04T04:57:07.096Z,19.30
2022-09-04T04:59:41.443Z,19.30
2022-09-04T05:02:17.668Z,19.30
2022-09-04T05:04:49.978Z,19.30
2022-09-04T05:07:26.050Z,19.30
2022-09-04T05:10:00.528Z,19.20
2022-09-04T05:12:34.076Z,19.20
2022-09-04T05:15:08.981Z,19.10
2022-09-04T05:17:42.716Z,19.10
2022-09-04T05:20:26.031Z,19.00
2022-09-04T05:23:02.898Z,19.00
2022-09-04T05:25:38.908Z,18.90
2022-09-04T05:28:15.153Z,18.90
2022-09-04T05:30:46.249Z,18.80
2022-09-04T05:33:19.057Z,18.80
2022-09-04T05:35:53.125Z,18.70
2022-09-04T05:38:30.169Z,18.70
2022-09-04T05:41:09.608Z,18.60
2022-09-04T05:43:45.575Z,18.50
2022-09-04T05:46:20.423Z,18.40
2022-09-04T05:48:58.364Z,18.40
2022-09-04T05:51:36.557Z,18.30
2022-09-04T05:54:13.863Z,18.20
2022-09-04T05:57:04.117Z,18.10
2022-09-04T05:59:49.681Z,18.10
2022-09-04T06:02:34.037Z,18.00
2022-09-04T06:05:22.079Z,17.90
2022-09-04T06:07:56.004Z,17.80
2022-09-04T06:10:31.790Z,17.80
2022-09-04T06:13:19.044Z,17.70
2022-09-04T06:15:55.423Z,17.70
2022-09-04T06:18:46.134Z,17.70
2022-09-04T06:21:39.013Z,17.60
2022-09-04T06:24:22.401Z,17.60
2022-09-04T06:27:06.566Z,17.60
2022-09-04T06:29:53.881Z,17.50
2022-09-04T06:32:49.177Z,17.50
2022-09-04T06:35:24.507Z,17.50
2022-09-04T06:37:58.621Z,17.40
2022-09-04T06:40:36.845Z,17.30
2022-09-04T06:43:14.727Z,17.30
2022-09-04T06:45:51.320Z,17.30
2022-09-04T06:48:25.494Z,17.30
2022-09-04T06:50:59.866Z,17.20
2022-09-04T06:53:43.136Z,17.20
2022-09-04T06:56:19.105Z,17.20
2022-09-04T06:59:01.584Z,17.20
2022-09-04T07:01:41.022Z,17.10
2022-09-04T07:04:20.204Z,17.10
2022-09-04T07:06:54.153Z,17.10
2022-09-04T07:09:26.763Z,17.10
2022-09-04T07:12:10.874Z,17.00
2022-09-04T07:15:01.023Z,17.00
2022-09-04T07:17:32.115Z,16.90
2022-09-04T07:20:11.092Z,16.70
2022-09-04T07:22:53.279Z,16.50
2022-09-04T07:25:26.854Z,16.20
2022-09-04T07:28:03.038Z,16.10
2022-09-04T07:30:37.196Z,15.90
2022-09-04T07:33:09.756Z,15.90
2022-09-04T07:35:42.642Z,15.80
2022-09-04T07:38:17.040Z,15.70
2022-09-04T07:40:48.387Z,15.60
2022-09-04T07:43:22.112Z,15.50
2022-09-04T07:45:55.881Z,15.50
2022-09-04T07:48:30.406Z,15.40
2022-09-04T07:51:07.822Z,15.40
2022-09-04T07:53:52.111Z,15.30
2022-09-04T07:56:25.924Z,15.30
2022-09-04T07:59:03.542Z,15.10
2022-09-04T08:01:44.794Z,15.00
2022-09-04T08:04:32.848Z,14.90
2022-09-04T08:07:04.721Z,14.90
2022-09-04T08:09:51.217Z,14.80
2022-09-04T08:12:29.793Z,14.70
2022-09-04T08:15:04.641Z,14.70
2022-09-04T08:17:51.152Z,14.60
2022-09-04T08:20:28.908Z,14.60
2022-09-04T08:23:00.918Z,14.50
2022-09-04T08:25:31.687Z,14.50
2022-09-04T08:28:18.080Z,14.50
2022-09-04T08:30:51.944Z,14.40
2022-09-04T08:33:30.562Z,14.40
2022-09-04T08:36:02.697Z,14.40
2022-09-04T08:38:57.131Z,14.40
2022-09-04T08:41:51.506Z,14.30
2022-09-04T08:44:50.811Z,14.30
2022-09-04T08:47:37.914Z,14.30
2022-09-04T08:50:21.034Z,14.30
2022-09-04T08:53:11.487Z,14.30
2022-09-04T08:55:47.824Z,14.30
2022-09-04T08:58:35.518Z,14.20
2022-09-04T09:01:22.962Z,14.20
2022-09-04T09:04:10.546Z,14.20
2022-09-04T09:06:54.576Z,14.10
2022-09-04T09:09:47.884Z,14.10
2022-09-04T09:12:41.399Z,14.00
2022-09-04T09:15:32.381Z,14.00
2022-09-04T09:18:03.805Z,14.00
2022-09-04T09:20:40.472Z,14.00
2022-09-04T09:23:27.482Z,13.90
2022-09-04T09:26:11.514Z,13.90
2022-09-04T09:29:07.754Z,13.90
2022-09-04T09:31:52.661Z,13.90
2022-09-04T09:34:36.664Z,13.90
2022-09-04T09:37:26.679Z,13.90
2022-09-04T09:40:10.734Z,13.90
2022-09-04T09:42:57.906Z,13.80
2022-09-04T09:45:42.828Z,13.80
2022-09-04T09:48:32.811Z,13.80
2022-09-04T09:51:21.083Z,13.80
2022-09-04T09:54:08.189Z,13.80
2022-09-04T09:56:53.797Z,13.80
2022-09-04T09:59:38.469Z,13.80
2022-09-04T10:02:22.372Z,13.80
2022-09-04T10:05:02.030Z,13.80
2022-09-04T10:07:48.672Z,13.70
2022-09-04T10:10:23.707Z,13.70
2022-09-04T10:13:06.510Z,13.70
2022-09-04T10:15:49.037Z,13.70
2022-09-04T10:18:36.509Z,13.70
2022-09-04T10:21:21.385Z,13.70
2022-09-04T10:24:01.865Z,13.70
2022-09-04T10:26:45.969Z,13.70
2022-09-04T10:29:29.701Z,13.70
2022-09-04T10:32:10.524Z,13.60
2022-09-04T10:34:58.170Z,13.60
2022-09-04T10:37:35.953Z,13.60
2022-09-04T10:40:31.664Z,13.60
2022-09-04T10:43:11.269Z,13.60
2022-09-04T10:45:41.376Z,13.50
2022-09-04T10:48:34.512Z,13.50
2022-09-04T10:51:21.623Z,13.50
2022-09-04T10:54:07.847Z,13.60
2022-09-04T10:56:43.429Z,13.50
2022-09-04T10:59:34.337Z,13.50
2022-09-04T11:02:25.651Z,13.50
2022-09-04T11:05:20.618Z,13.50
2022-09-04T11:08:02.761Z,13.50
2022-09-04T11:10:59.101Z,13.50
2022-09-04T11:13:50.638Z,13.50
2022-09-04T11:16:29.152Z,13.40
2022-09-04T11:19:05.956Z,13.50
2022-09-04T11:22:02.060Z,13.40
2022-09-04T11:24:43.858Z,13.40
2022-09-04T11:27:43.405Z,13.40
2022-09-04T11:30:17.515Z,13.50
2022-09-04T11:33:07.663Z,13.50
2022-09-04T11:35:54.852Z,13.50
2022-09-04T11:38:44.445Z,13.50
2022-09-04T11:41:34.044Z,13.50
2022-09-04T11:44:25.664Z,13.50
2022-09-04T11:47:08.847Z,13.50
2022-09-04T11:50:00.427Z,13.50
2022-09-04T11:52:38.209Z,13.50
2022-09-04T11:55:25.886Z,13.50
2022-09-04T11:58:02.270Z,13.50
2022-09-04T12:00:38.252Z,13.50
2022-09-04T12:03:33.136Z,13.50
2022-09-04T12:06:13.120Z,13.50
2022-09-04T12:08:57.188Z,13.60
2022-09-04T12:11:47.057Z,13.50
2022-09-04T12:14:22.458Z,13.60
2022-09-04T12:17:06.185Z,13.60
2022-09-04T12:19:47.021Z,13.60
2022-09-04T12:22:26.810Z,13.60
2022-09-04T12:25:09.213Z,13.60
2022-09-04T12:28:02.509Z,13.60
2022-09-04T12:30:35.191Z,13.70
2022-09-04T12:33:27.623Z,13.70
2022-09-04T12:36:16.052Z,13.80
2022-09-04T12:39:09.157Z,13.90
2022-09-04T12:41:46.871Z,14.00
2022-09-04T12:44:23.630Z,14.00
2022-09-04T12:47:01.604Z,14.00
2022-09-04T12:49:43.944Z,14.00
2022-09-04T12:52:19.750Z,14.10
2022-09-04T12:54:54.599Z,14.10
2022-09-04T12:57:31.201Z,14.10
2022-09-04T13:00:06.297Z,14.10
2022-09-04T13:02:40.220Z,14.10
2022-09-04T13:05:17.428Z,14.20
2022-09-04T13:07:52.663Z,14.20
2022-09-04T13:10:25.915Z,14.30
2022-09-04T13:13:03.028Z,14.40
2022-09-04T13:15:36.641Z,14.50
2022-09-04T13:18:14.874Z,14.60
2022-09-04T13:20:47.951Z,14.60
2022-09-04T13:23:35.366Z,14.60
2022-09-04T13:26:16.595Z,14.60
2022-09-04T13:28:54.581Z,14.60
2022-09-04T13:31:48.252Z,14.60
2022-09-04T13:34:21.738Z,14.70
2022-09-04T13:36:57.032Z,14.70
2022-09-04T13:39:37.416Z,14.70
2022-09-04T13:42:15.960Z,14.70
2022-09-04T13:45:00.207Z,14.70
2022-09-04T13:47:37.430Z,14.70
2022-09-04T13:50:09.171Z,14.60
2022-09-04T13:52:41.438Z,14.60
2022-09-04T13:55:15.383Z,14.60
2022-09-04T13:57:48.380Z,14.50
2022-09-04T14:00:20.557Z,14.40
2022-09-04T14:02:59.141Z,14.40
2022-09-04T14:05:29.806Z,14.30
2022-09-04T14:08:01.056Z,14.30
2022-09-04T14:10:35.846Z,14.30
2022-09-04T14:13:16.243Z,14.30
2022-09-04T14:15:52.156Z,14.30
2022-09-04T14:18:31.964Z,14.30
2022-09-04T14:21:03.478Z,14.30
2022-09-04T14:23:38.437Z,14.40
2022-09-04T14:26:13.198Z,14.40
2022-09-04T14:28:46.200Z,14.50
2022-09-04T14:31:19.234Z,14.50
2022-09-04T14:33:54.146Z,14.60
2022-09-04T14:36:27.892Z,14.60
2022-09-04T14:39:07.237Z,14.60
2022-09-04T14:41:43.514Z,14.70
2022-09-04T14:44:21.497Z,14.80
2022-09-04T14:46:57.074Z,14.80
2022-09-04T14:49:32.452Z,14.90
2022-09-04T14:52:05.045Z,15.00
2022-09-04T14:54:36.825Z,15.10
2022-09-04T14:57:13.738Z,15.10
2022-09-04T14:59:46.009Z,15.10
2022-09-04T15:02:21.373Z,15.00
2022-09-04T15:04:55.044Z,14.90
2022-09-04T15:07:34.964Z,14.80
2022-09-04T15:10:16.339Z,14.70
2022-09-04T15:12:51.920Z,14.70
2022-09-04T15:15:24.139Z,14.60
2022-09-04T15:17:55.320Z,14.50
2022-09-04T15:20:27.449Z,14.50
2022-09-04T15:22:59.427Z,14.50
2022-09-04T15:25:57.311Z,14.50
2022-09-04T15:28:27.408Z,14.40
2022-09-04T15:31:15.246Z,14.50
2022-09-04T15:33:46.806Z,14.50
2022-09-04T15:36:21.560Z,14.50
2022-09-04T15:38:53.158Z,14.50
2022-09-04T15:41:26.781Z,14.50
2022-09-04T15:44:00.099Z,14.60
2022-09-04T15:46:37.359Z,14.50
2022-09-04T15:49:17.484Z,14.60
2022-09-04T15:51:53.430Z,14.60
2022-09-04T15:54:34.531Z,14.70
2022-09-04T15:57:08.989Z,14.70
2022-09-04T15:59:44.351Z,14.70
2022-09-04T16:02:20.816Z,14.80
2022-09-04T16:05:04.179Z,14.80
2022-09-04T16:07:41.585Z,14.70
2022-09-04T16:10:17.359Z,14.80
2022-09-04T16:12:59.495Z,14.80
2022-09-04T16:15:31.399Z,14.80
2022-09-04T16:18:03.521Z,15.00
2022-09-04T16:20:36.195Z,15.10
2022-09-04T16:23:09.234Z,15.20
2022-09-04T16:25:41.265Z,15.20
2022-09-04T16:28:15.685Z,15.20
2022-09-04T16:30:47.741Z,15.20
2022-09-04T16:33:28.256Z,15.30
2022-09-04T16:36:05.160Z,15.50
2022-09-04T16:41:49.937Z,16.20
2022-09-04T16:44:26.498Z,16.60
2022-09-04T16:47:03.776Z,16.80
2022-09-04T16:49:36.648Z,17.10
2022-09-04T16:52:22.015Z,17.20
2022-09-04T16:54:52.931Z,17.40
2022-09-04T16:57:28.701Z,17.60
2022-09-04T16:59:59.640Z,17.80
2022-09-04T17:02:36.273Z,17.90
2022-09-04T17:05:13.975Z,18.00
2022-09-04T17:07:46.255Z,18.20
2022-09-04T17:10:23.398Z,18.30
2022-09-04T17:12:57.166Z,18.20
2022-09-04T17:15:31.205Z,18.30
2022-09-04T17:18:01.827Z,18.40
2022-09-04T17:20:51.613Z,18.30
2022-09-04T17:28:55.908Z,18.20
2022-09-04T17:29:00.065Z,18.10
2022-09-04T17:29:36.083Z,18.00
2022-09-04T17:32:14.252Z,17.90
2022-09-04T17:40:36.393Z,17.70
2022-09-04T17:40:49.260Z,17.90
2022-09-04T17:41:36.341Z,18.10
2022-09-04T17:43:40.274Z,18.40
2022-09-04T17:46:27.132Z,19.20
2022-09-04T17:48:57.884Z,19.50
2022-09-04T17:51:28.036Z,19.70
2022-09-04T17:53:59.291Z,19.80
2022-09-04T17:56:30.305Z,19.70
2022-09-04T17:59:04.299Z,19.70
2022-09-04T18:01:39.282Z,19.90
2022-09-04T18:04:29.498Z,19.80
2022-09-04T18:07:51.085Z,19.40
2022-09-04T18:10:01.600Z,19.30
2022-09-04T18:12:35.080Z,19.20
2022-09-04T18:15:33.184Z,18.90
2022-09-04T18:18:03.405Z,19.00
2022-09-04T18:20:38.368Z,19.00
2022-09-04T18:23:25.497Z,19.10
2022-09-04T18:25:58.303Z,19.10
2022-09-04T18:28:30.490Z,19.10
2022-09-04T18:37:08.475Z,19.10
2022-09-04T18:37:19.450Z,19.30
2022-09-04T18:37:23.399Z,19.30
2022-09-04T18:39:50.595Z,19.40
2022-09-04T18:50:21.177Z,19.40
2022-09-04T18:50:35.749Z,19.40
2022-09-04T18:50:37.434Z,19.40
2022-09-04T18:51:19.550Z,19.50
2022-09-04T18:53:52.612Z,19.40
2022-09-04T18:56:25.220Z,19.30
2022-09-04T18:58:58.592Z,19.40
2022-09-04T19:01:29.350Z,19.60
2022-09-04T19:03:59.704Z,19.90
2022-09-04T19:06:37.123Z,20.30
2022-09-04T19:09:12.043Z,20.60
2022-09-04T19:11:46.727Z,20.70
2022-09-04T19:14:18.152Z,20.60
2022-09-04T19:16:50.943Z,20.20
2022-09-04T19:19:22.699Z,20.10
2022-09-04T19:21:58.777Z,19.90
2022-09-04T19:24:34.363Z,19.90
2022-09-04T19:27:20.537Z,19.70
2022-09-04T19:30:18.575Z,19.60
2022-09-04T19:33:03.575Z,19.60
2022-09-04T19:35:37.534Z,19.40
2022-09-04T19:40:16.584Z,19.50
2022-09-04T19:46:13.994Z,19.60
2022-09-04T19:46:19.139Z,19.40
2022-09-04T19:46:51.261Z,19.50
2022-09-04T19:51:50.922Z,19.70
2022-09-04T19:53:34.662Z,20.00
2022-09-04T19:55:25.214Z,19.90
2022-09-04T19:58:03.350Z,19.80
2022-09-04T20:00:43.808Z,19.70
2022-09-04T20:03:30.406Z,19.60
2022-09-04T20:06:21.413Z,19.50
2022-09-04T20:08:56.949Z,19.50
2022-09-04T20:11:36.124Z,19.40
2022-09-04T20:14:14.251Z,19.50
2022-09-04T20:16:50.646Z,19.40
2022-09-04T20:19:28.227Z,19.40
2022-09-04T20:22:01.786Z,19.50
2022-09-04T20:24:36.986Z,19.50
2022-09-04T20:27:10.940Z,19.70
2022-09-04T20:29:44.942Z,20.00
2022-09-04T20:32:26.927Z,20.10
2022-09-04T20:34:59.497Z,20.20
2022-09-04T20:37:46.609Z,20.70
2022-09-04T20:40:27.055Z,21.10
2022-09-04T20:43:09.588Z,21.30
2022-09-04T20:47:55.057Z,21.60
2022-09-04T20:52:52.988Z,21.60
2022-09-04T20:52:56.241Z,22.00
2022-09-04T20:54:28.532Z,22.10
2022-09-04T21:02:44.636Z,21.90
2022-09-04T21:03:10.665Z,21.20
2022-09-04T21:03:24.717Z,20.70
2022-09-04T21:06:04.270Z,20.20
2022-09-04T21:08:40.210Z,20.80
2022-09-04T21:11:39.301Z,21.50
2022-09-04T21:14:02.989Z,21.90
2022-09-04T21:16:37.500Z,21.90
2022-09-04T21:19:28.748Z,21.90
2022-09-04T21:22:10.017Z,21.70
2022-09-04T21:25:01.244Z,21.20
2022-09-04T21:27:50.844Z,20.60
2022-09-04T21:30:24.190Z,20.50
2022-09-04T21:33:35.932Z,20.70
2022-09-04T21:36:00.297Z,20.50
2022-09-04T21:38:47.955Z,20.30
2022-09-04T21:41:29.861Z,20.30
2022-09-04T21:44:14.511Z,20.20
2022-09-04T21:46:56.765Z,20.10
2022-09-04T21:49:43.574Z,19.90
2022-09-04T21:52:21.336Z,19.80
2022-09-04T21:57:17.662Z,19.80
2022-09-04T22:02:28.873Z,19.70
2022-09-04T22:02:39.689Z,19.70
2022-09-04T22:03:56.447Z,19.80
2022-09-04T22:08:41.187Z,20.00
2022-09-04T22:13:28.700Z,20.00
2022-09-04T22:13:43.093Z,19.90
2022-09-04T22:15:13.486Z,19.70
2022-09-04T22:18:06.319Z,19.50
2022-09-04T22:20:45.546Z,19.30
2022-09-04T22:23:32.399Z,19.00
2022-09-04T22:26:23.865Z,18.80
2022-09-04T22:28:58.077Z,18.50
2022-09-04T22:31:40.390Z,18.20
2022-09-04T22:34:28.354Z,17.80
2022-09-04T22:37:10.823Z,17.50
2022-09-04T22:39:54.407Z,17.30
2022-09-04T22:42:38.757Z,17.10
2022-09-04T22:45:15.837Z,16.90
2022-09-04T22:47:52.691Z,16.70
2022-09-04T22:50:49.785Z,16.50
2022-09-04T22:53:36.106Z,16.30
2022-09-04T22:56:24.464Z,16.20
2022-09-04T22:59:10.522Z,16.00
2022-09-04T23:02:09.878Z,15.80
2022-09-04T23:04:51.744Z,15.60
2022-09-04T23:13:36.047Z,15.50
2022-09-04T23:13:44.302Z,15.40
2022-09-04T23:14:06.668Z,15.30
2022-09-04T23:16:47.293Z,15.10
2022-09-04T23:24:46.547Z,15.00
2022-09-04T23:26:37.899Z,14.90
2022-09-04T23:26:42.365Z,14.70
2022-09-04T23:28:27.757Z,14.60
2022-09-04T23:31:07.237Z,14.30
2022-09-04T23:33:51.781Z,14.10
2022-09-04T23:36:35.945Z,14.00
2022-09-04T23:39:16.956Z,13.80
2022-09-04T23:41:57.804Z,13.70
2022-09-04T23:44:42.374Z,13.50
2022-09-04T23:47:48.146Z,13.40
2022-09-04T23:50:26.877Z,13.30
2022-09-04T23:53:03.280Z,13.20
2022-09-04T23:55:48.922Z,13.20
2022-09-04T23:58:51.839Z,13.20
